sensor_id;sensor_type;location;lat;lon;timestamp;pressure;altitude;pressure_sealevel;temperature;humidity
72061;BME280;59925;52.136;5.420;2023-09-12T00:01:09;101444.53;;;19.75;88.68
72061;BME280;59925;52.136;5.420;2023-09-12T00:03:36;101442.91;;;19.74;88.63
72061;BME280;59925;52.136;5.420;2023-09-12T00:06:03;101435.88;;;19.73;88.80
72061;BME280;59925;52.136;5.420;2023-09-12T00:08:30;101432.34;;;19.72;88.36
72061;BME280;59925;52.136;5.420;2023-09-12T00:13:28;101430.41;;;19.64;88.43
72061;BME280;59925;52.136;5.420;2023-09-12T00:15:54;101417.78;;;19.59;88.40
72061;BME280;59925;52.136;5.420;2023-09-12T00:18:21;101416.00;;;19.55;88.84
72061;BME280;59925;52.136;5.420;2023-09-12T00:20:48;101415.66;;;19.48;89.21
72061;BME280;59925;52.136;5.420;2023-09-12T00:23:14;101417.88;;;19.45;89.45
72061;BME280;59925;52.136;5.420;2023-09-12T00:25:40;101422.19;;;19.38;89.80
72061;BME280;59925;52.136;5.420;2023-09-12T00:28:07;101413.84;;;19.34;89.67
72061;BME280;59925;52.136;5.420;2023-09-12T00:30:33;101413.38;;;19.32;89.60
72061;BME280;59925;52.136;5.420;2023-09-12T00:33:00;101411.91;;;19.26;89.88
72061;BME280;59925;52.136;5.420;2023-09-12T00:35:27;101407.59;;;19.25;89.84
72061;BME280;59925;52.136;5.420;2023-09-12T00:37:53;101405.50;;;19.22;89.86
72061;BME280;59925;52.136;5.420;2023-09-12T00:40:20;101409.66;;;19.19;89.48
72061;BME280;59925;52.136;5.420;2023-09-12T00:42:46;101412.81;;;19.12;89.54
72061;BME280;59925;52.136;5.420;2023-09-12T00:45:12;101418.09;;;19.09;89.83
72061;BME280;59925;52.136;5.420;2023-09-12T00:47:39;101419.34;;;19.03;90.17
72061;BME280;59925;52.136;5.420;2023-09-12T00:50:07;101432.25;;;18.97;90.51
72061;BME280;59925;52.136;5.420;2023-09-12T00:52:34;101433.38;;;18.96;90.27
72061;BME280;59925;52.136;5.420;2023-09-12T00:55:02;101433.38;;;18.96;89.74
72061;BME280;59925;52.136;5.420;2023-09-12T00:57:30;101425.81;;;18.93;89.68
72061;BME280;59925;52.136;5.420;2023-09-12T00:59:58;101430.56;;;18.87;90.31
72061;BME280;59925;52.136;5.420;2023-09-12T01:02:25;101430.72;;;18.82;91.36
72061;BME280;59925;52.136;5.420;2023-09-12T01:04:51;101428.75;;;18.74;92.09
72061;BME280;59925;52.136;5.420;2023-09-12T01:07:18;101429.66;;;18.69;93.09
72061;BME280;59925;52.136;5.420;2023-09-12T01:09:45;101430.78;;;18.68;93.55
72061;BME280;59925;52.136;5.420;2023-09-12T01:12:11;101430.00;;;18.67;93.48
72061;BME280;59925;52.136;5.420;2023-09-12T01:14:41;101433.19;;;18.69;93.50
72061;BME280;59925;52.136;5.420;2023-09-12T01:17:07;101429.66;;;18.69;93.64
72061;BME280;59925;52.136;5.420;2023-09-12T01:19:34;101428.50;;;18.61;94.34
72061;BME280;59925;52.136;5.420;2023-09-12T01:22:20;101417.59;;;18.52;95.65
72061;BME280;59925;52.136;5.420;2023-09-12T01:27:54;101424.88;;;18.43;96.72
72061;BME280;59925;52.136;5.420;2023-09-12T01:30:22;101427.59;;;18.43;96.71
72061;BME280;59925;52.136;5.420;2023-09-12T01:32:49;101430.13;;;18.40;96.65
72061;BME280;59925;52.136;5.420;2023-09-12T01:35:16;101426.41;;;18.35;97.00
72061;BME280;59925;52.136;5.420;2023-09-12T01:37:43;101428.50;;;18.38;96.67
72061;BME280;59925;52.136;5.420;2023-09-12T01:40:10;101431.56;;;18.37;96.67
72061;BME280;59925;52.136;5.420;2023-09-12T01:42:38;101428.50;;;18.38;96.37
72061;BME280;59925;52.136;5.420;2023-09-12T01:45:13;101421.13;;;18.30;96.56
72061;BME280;59925;52.136;5.420;2023-09-12T01:47:41;101413.47;;;18.32;96.58
72061;BME280;59925;52.136;5.420;2023-09-12T01:50:12;101421.91;;;18.31;96.71
72061;BME280;59925;52.136;5.420;2023-09-12T01:52:40;101418.09;;;18.32;96.87
72061;BME280;59925;52.136;5.420;2023-09-12T01:55:08;101415.69;;;18.30;96.70
72061;BME280;59925;52.136;5.420;2023-09-12T01:57:38;101418.41;;;18.30;96.23
72061;BME280;59925;52.136;5.420;2023-09-12T02:00:06;101415.97;;;18.29;96.40
72061;BME280;59925;52.136;5.420;2023-09-12T02:02:32;101423.34;;;18.28;95.97
72061;BME280;59925;52.136;5.420;2023-09-12T02:07:38;101420.72;;;18.23;95.79
72061;BME280;59925;52.136;5.420;2023-09-12T02:10:06;101413.34;;;18.15;95.45
72061;BME280;59925;52.136;5.420;2023-09-12T02:12:32;101410.03;;;18.04;95.29
72061;BME280;59925;52.136;5.420;2023-09-12T02:14:59;101407.94;;;18.01;95.19
72061;BME280;59925;52.136;5.420;2023-09-12T02:17:25;101413.38;;;18.01;94.82
72061;BME280;59925;52.136;5.420;2023-09-12T02:19:52;101411.75;;;18.00;94.71
72061;BME280;59925;52.136;5.420;2023-09-12T02:22:19;101412.06;;;17.98;94.75
72061;BME280;59925;52.136;5.420;2023-09-12T02:24:45;101410.19;;;17.99;94.61
72061;BME280;59925;52.136;5.420;2023-09-12T02:27:11;101405.84;;;17.98;94.86
72061;BME280;59925;52.136;5.420;2023-09-12T02:29:39;101406.44;;;17.95;95.16
72061;BME280;59925;52.136;5.420;2023-09-12T02:32:06;101414.25;;;17.96;95.51
72061;BME280;59925;52.136;5.420;2023-09-12T02:34:32;101411.53;;;17.96;95.78
72061;BME280;59925;52.136;5.420;2023-09-12T02:37:01;101411.53;;;17.96;95.56
72061;BME280;59925;52.136;5.420;2023-09-12T02:39:27;101416.97;;;17.96;95.52
72061;BME280;59925;52.136;5.420;2023-09-12T02:41:53;101423.72;;;17.85;95.86
72061;BME280;59925;52.136;5.420;2023-09-12T02:44:20;101425.16;;;17.82;96.59
72061;BME280;59925;52.136;5.420;2023-09-12T02:46:46;101432.78;;;17.80;96.85
72061;BME280;59925;52.136;5.420;2023-09-12T02:49:14;101417.59;;;17.79;96.94
72061;BME280;59925;52.136;5.420;2023-09-12T02:51:41;101420.13;;;17.75;96.78
72061;BME280;59925;52.136;5.420;2023-09-12T02:54:08;101423.63;;;17.76;96.80
72061;BME280;59925;52.136;5.420;2023-09-12T02:56:34;101419.63;;;17.73;96.47
72061;BME280;59925;52.136;5.420;2023-09-12T02:59:01;101432.41;;;17.73;96.48
72061;BME280;59925;52.136;5.420;2023-09-12T03:01:27;101423.44;;;17.72;96.25
72061;BME280;59925;52.136;5.420;2023-09-12T03:03:54;101412.91;;;17.71;96.21
72061;BME280;59925;52.136;5.420;2023-09-12T03:06:21;101420.22;;;17.70;95.94
72061;BME280;59925;52.136;5.420;2023-09-12T03:08:48;101424.88;;;17.70;95.67
72061;BME280;59925;52.136;5.420;2023-09-12T03:11:14;101430.09;;;17.66;95.36
72061;BME280;59925;52.136;5.420;2023-09-12T03:13:41;101436.63;;;17.65;95.44
72061;BME280;59925;52.136;5.420;2023-09-12T03:16:14;101431.19;;;17.65;95.13
72061;BME280;59925;52.136;5.420;2023-09-12T03:18:40;101424.78;;;17.61;95.07
72061;BME280;59925;52.136;5.420;2023-09-12T03:21:07;101426.28;;;17.53;94.73
72061;BME280;59925;52.136;5.420;2023-09-12T03:23:34;101431.78;;;17.48;94.33
72061;BME280;59925;52.136;5.420;2023-09-12T03:26:05;101434.81;;;17.46;94.16
72061;BME280;59925;52.136;5.420;2023-09-12T03:28:32;101431.09;;;17.42;94.32
72061;BME280;59925;52.136;5.420;2023-09-12T03:31:09;101421.16;;;17.38;94.48
72061;BME280;59925;52.136;5.420;2023-09-12T03:33:38;101416.06;;;17.36;94.37
72061;BME280;59925;52.136;5.420;2023-09-12T03:36:05;101416.56;;;17.38;93.99
72061;BME280;59925;52.136;5.420;2023-09-12T03:38:33;101410.81;;;17.40;93.71
72061;BME280;59925;52.136;5.420;2023-09-12T03:41:00;101407.34;;;17.39;93.56
72061;BME280;59925;52.136;5.420;2023-09-12T03:43:26;101413.63;;;17.35;93.90
72061;BME280;59925;52.136;5.420;2023-09-12T03:45:53;101421.06;;;17.29;94.07
72061;BME280;59925;52.136;5.420;2023-09-12T03:48:20;101418.97;;;17.26;94.14
72061;BME280;59925;52.136;5.420;2023-09-12T03:50:46;101416.25;;;17.26;94.45
72061;BME280;59925;52.136;5.420;2023-09-12T03:53:14;101414.94;;;17.23;94.78
72061;BME280;59925;52.136;5.420;2023-09-12T03:55:40;101411.94;;;17.25;94.80
72061;BME280;59925;52.136;5.420;2023-09-12T03:58:07;101410.84;;;17.26;95.04
72061;BME280;59925;52.136;5.420;2023-09-12T04:00:33;101401.59;;;17.27;94.83
72061;BME280;59925;52.136;5.420;2023-09-12T04:03:00;101414.84;;;17.28;95.02
72061;BME280;59925;52.136;5.420;2023-09-12T04:05:27;101405.63;;;17.29;95.18
72061;BME280;59925;52.136;5.420;2023-09-12T04:07:53;101403.88;;;17.34;95.17
72061;BME280;59925;52.136;5.420;2023-09-12T04:10:20;101411.13;;;17.38;95.20
72061;BME280;59925;52.136;5.420;2023-09-12T04:12:47;101412.13;;;17.42;95.06
72061;BME280;59925;52.136;5.420;2023-09-12T04:15:13;101412.63;;;17.44;95.17
72061;BME280;59925;52.136;5.420;2023-09-12T04:17:40;101408.81;;;17.45;95.06
72061;BME280;59925;52.136;5.420;2023-09-12T04:20:06;101409.31;;;17.48;94.94
72061;BME280;59925;52.136;5.420;2023-09-12T04:22:33;101404.41;;;17.50;95.02
72061;BME280;59925;52.136;5.420;2023-09-12T04:24:59;101403.00;;;17.52;95.16
72061;BME280;59925;52.136;5.420;2023-09-12T04:27:26;101395.97;;;17.51;95.62
72061;BME280;59925;52.136;5.420;2023-09-12T04:29:52;101392.75;;;17.49;95.72
72061;BME280;59925;52.136;5.420;2023-09-12T04:32:19;101385.84;;;17.43;95.55
72061;BME280;59925;52.136;5.420;2023-09-12T04:34:50;101382.63;;;17.41;95.75
72061;BME280;59925;52.136;5.420;2023-09-12T04:37:17;101385.66;;;17.39;95.27
72061;BME280;59925;52.136;5.420;2023-09-12T04:39:44;101391.84;;;17.40;95.20
72061;BME280;59925;52.136;5.420;2023-09-12T04:42:11;101394.88;;;17.38;94.96
72061;BME280;59925;52.136;5.420;2023-09-12T04:44:40;101388.66;;;17.38;94.93
72061;BME280;59925;52.136;5.420;2023-09-12T04:47:07;101389.75;;;17.37;94.97
72061;BME280;59925;52.136;5.420;2023-09-12T04:49:34;101384.31;;;17.37;95.18
72061;BME280;59925;52.136;5.420;2023-09-12T04:52:00;101388.75;;;17.33;94.99
72061;BME280;59925;52.136;5.420;2023-09-12T04:54:27;101389.44;;;17.24;95.12
72061;BME280;59925;52.136;5.420;2023-09-12T04:56:54;101391.19;;;17.20;95.06
72061;BME280;59925;52.136;5.420;2023-09-12T04:59:20;101392.28;;;17.19;94.98
72061;BME280;59925;52.136;5.420;2023-09-12T05:01:47;101390.03;;;17.21;94.96
72061;BME280;59925;52.136;5.420;2023-09-12T05:04:13;101382.72;;;17.22;95.10
72061;BME280;59925;52.136;5.420;2023-09-12T05:06:40;101380.63;;;17.19;95.08
72061;BME280;59925;52.136;5.420;2023-09-12T05:09:06;101382.63;;;17.13;95.13
72061;BME280;59925;52.136;5.420;2023-09-12T05:11:35;101386.84;;;17.05;95.05
72061;BME280;59925;52.136;5.420;2023-09-12T05:14:02;101388.84;;;16.99;95.02
72061;BME280;59925;52.136;5.420;2023-09-12T05:16:30;101393.75;;;16.97;95.38
72061;BME280;59925;52.136;5.420;2023-09-12T05:18:56;101398.94;;;16.94;95.38
72061;BME280;59925;52.136;5.420;2023-09-12T05:21:23;101393.53;;;16.94;95.23
72061;BME280;59925;52.136;5.420;2023-09-12T05:23:49;101404.66;;;16.92;95.13
72061;BME280;59925;52.136;5.420;2023-09-12T05:26:16;101406.00;;;16.95;95.29
72061;BME280;59925;52.136;5.420;2023-09-12T05:28:43;101404.59;;;16.97;95.61
72061;BME280;59925;52.136;5.420;2023-09-12T05:31:09;101401.38;;;16.95;95.91
72061;BME280;59925;52.136;5.420;2023-09-12T05:33:37;101399.97;;;16.98;96.02
72061;BME280;59925;52.136;5.420;2023-09-12T05:36:03;101399.97;;;16.98;95.94
72061;BME280;59925;52.136;5.420;2023-09-12T05:38:30;101406.69;;;17.00;95.79
72061;BME280;59925;52.136;5.420;2023-09-12T05:40:57;101407.50;;;17.01;95.29
72061;BME280;59925;52.136;5.420;2023-09-12T05:43:23;101406.69;;;17.00;95.50
72061;BME280;59925;52.136;5.420;2023-09-12T05:45:49;101408.81;;;17.04;95.49
72061;BME280;59925;52.136;5.420;2023-09-12T05:48:16;101406.91;;;17.04;95.39
72061;BME280;59925;52.136;5.420;2023-09-12T05:50:42;101403.91;;;17.06;95.16
72061;BME280;59925;52.136;5.420;2023-09-12T05:53:09;101404.09;;;17.09;95.46
72061;BME280;59925;52.136;5.420;2023-09-12T05:55:35;101405.59;;;17.15;95.79
72061;BME280;59925;52.136;5.420;2023-09-12T05:58:02;101395.78;;;17.20;96.03
72061;BME280;59925;52.136;5.420;2023-09-12T06:00:32;101397.56;;;17.24;95.99
72061;BME280;59925;52.136;5.420;2023-09-12T06:02:59;101404.00;;;17.28;96.16
72061;BME280;59925;52.136;5.420;2023-09-12T06:05:26;101407.22;;;17.30;96.28
72061;BME280;59925;52.136;5.420;2023-09-12T06:07:52;101418.75;;;17.36;96.35
72061;BME280;59925;52.136;5.420;2023-09-12T06:10:19;101416.75;;;17.42;96.26
72061;BME280;59925;52.136;5.420;2023-09-12T06:12:45;101424.75;;;17.47;96.13
72061;BME280;59925;52.136;5.420;2023-09-12T06:15:11;101433.91;;;17.51;96.47
72061;BME280;59925;52.136;5.420;2023-09-12T06:17:38;101433.00;;;17.56;96.43
72061;BME280;59925;52.136;5.420;2023-09-12T06:20:05;101432.91;;;17.61;96.09
72061;BME280;59925;52.136;5.420;2023-09-12T06:22:32;101429.59;;;17.64;96.30
72061;BME280;59925;52.136;5.420;2023-09-12T06:25:00;101439.81;;;17.67;96.44
72061;BME280;59925;52.136;5.420;2023-09-12T06:27:27;101440.03;;;17.71;96.53
72061;BME280;59925;52.136;5.420;2023-09-12T06:29:53;101438.63;;;17.73;96.28
72061;BME280;59925;52.136;5.420;2023-09-12T06:32:20;101437.50;;;17.74;96.32
72061;BME280;59925;52.136;5.420;2023-09-12T06:34:46;101441.31;;;17.73;96.51
72061;BME280;59925;52.136;5.420;2023-09-12T06:37:13;101439.91;;;17.76;97.00
72061;BME280;59925;52.136;5.420;2023-09-12T06:39:40;101443.31;;;17.82;97.12
72061;BME280;59925;52.136;5.420;2023-09-12T06:42:07;101436.50;;;17.84;97.22
72061;BME280;59925;52.136;5.420;2023-09-12T06:44:33;101445.50;;;17.93;97.52
72061;BME280;59925;52.136;5.420;2023-09-12T06:47:00;101438.28;;;18.03;97.43
72061;BME280;59925;52.136;5.420;2023-09-12T06:49:26;101443.28;;;18.10;97.25
72061;BME280;59925;52.136;5.420;2023-09-12T06:51:53;101441.88;;;18.12;97.48
72061;BME280;59925;52.136;5.420;2023-09-12T06:54:19;101446.41;;;18.17;97.56
72061;BME280;59925;52.136;5.420;2023-09-12T06:56:46;101442.63;;;18.27;97.61
72061;BME280;59925;52.136;5.420;2023-09-12T06:59:12;101443.63;;;18.31;97.61
72061;BME280;59925;52.136;5.420;2023-09-12T07:01:39;101451.94;;;18.34;97.47
72061;BME280;59925;52.136;5.420;2023-09-12T07:04:05;101451.94;;;18.34;97.57
72061;BME280;59925;52.136;5.420;2023-09-12T07:06:32;101456.28;;;18.35;97.33
72061;BME280;59925;52.136;5.420;2023-09-12T07:08:59;101455.28;;;18.31;97.62
72061;BME280;59925;52.136;5.420;2023-09-12T07:11:26;101456.28;;;18.35;97.78
72061;BME280;59925;52.136;5.420;2023-09-12T07:13:52;101463.69;;;18.44;97.71
72061;BME280;59925;52.136;5.420;2023-09-12T07:16:19;101457.63;;;18.47;97.57
72061;BME280;59925;52.136;5.420;2023-09-12T07:18:50;101449.47;;;18.47;97.73
72061;BME280;59925;52.136;5.420;2023-09-12T07:21:17;101441.72;;;18.54;97.48
72061;BME280;59925;52.136;5.420;2023-09-12T07:23:43;101439.69;;;18.60;97.16
72061;BME280;59925;52.136;5.420;2023-09-12T07:26:14;101440.69;;;18.64;97.10
72061;BME280;59925;52.136;5.420;2023-09-12T07:28:40;101451.22;;;18.65;96.54
72061;BME280;59925;52.136;5.420;2023-09-12T07:31:07;101454.13;;;18.69;96.63
72061;BME280;59925;52.136;5.420;2023-09-12T07:33:34;101460.53;;;18.73;96.46
72061;BME280;59925;52.136;5.420;2023-09-12T07:36:00;101443.63;;;18.76;96.07
72061;BME280;59925;52.136;5.420;2023-09-12T07:38:29;101452.75;;;18.80;95.85
72061;BME280;59925;52.136;5.420;2023-09-12T07:40:57;101449.66;;;18.73;96.31
72061;BME280;59925;52.136;5.420;2023-09-12T07:43:24;101451.94;;;18.80;96.67
72061;BME280;59925;52.136;5.420;2023-09-12T07:45:55;101451.69;;;18.90;96.49
72061;BME280;59925;52.136;5.420;2023-09-12T07:48:22;101459.97;;;19.08;96.37
72061;BME280;59925;52.136;5.420;2023-09-12T07:50:48;101463.06;;;19.24;96.64
72061;BME280;59925;52.136;5.420;2023-09-12T07:53:15;101455.31;;;19.49;96.65
72061;BME280;59925;52.136;5.420;2023-09-12T07:55:41;101452.56;;;19.89;96.11
72061;BME280;59925;52.136;5.420;2023-09-12T07:58:17;101452.91;;;20.23;94.91
72061;BME280;59925;52.136;5.420;2023-09-12T08:00:47;101450.19;;;20.40;92.86
72061;BME280;59925;52.136;5.420;2023-09-12T08:03:14;101442.50;;;20.42;92.35
72061;BME280;59925;52.136;5.420;2023-09-12T08:05:43;101458.97;;;20.63;92.16
72061;BME280;59925;52.136;5.420;2023-09-12T08:08:10;101461.81;;;20.85;91.65
72061;BME280;59925;52.136;5.420;2023-09-12T08:10:37;101463.84;;;21.14;91.13
72061;BME280;59925;52.136;5.420;2023-09-12T08:13:03;101468.69;;;21.38;90.03
72061;BME280;59925;52.136;5.420;2023-09-12T08:15:30;101468.00;;;21.50;89.08
72061;BME280;59925;52.136;5.420;2023-09-12T08:17:57;101473.59;;;21.63;88.20
72061;BME280;59925;52.136;5.420;2023-09-12T08:20:23;101479.19;;;21.66;87.40
72061;BME280;59925;52.136;5.420;2023-09-12T08:22:50;101478.81;;;21.77;87.42
72061;BME280;59925;52.136;5.420;2023-09-12T08:25:16;101474.88;;;21.86;86.63
72061;BME280;59925;52.136;5.420;2023-09-12T08:27:43;101479.56;;;22.07;86.64
72061;BME280;59925;52.136;5.420;2023-09-12T08:30:11;101475.09;;;22.24;84.99
72061;BME280;59925;52.136;5.420;2023-09-12T08:32:40;101476.97;;;22.32;85.37
72061;BME280;59925;52.136;5.420;2023-09-12T08:35:10;101482.69;;;22.39;84.43
72061;BME280;59925;52.136;5.420;2023-09-12T08:37:40;101482.31;;;22.49;83.80
72061;BME280;59925;52.136;5.420;2023-09-12T08:40:08;101485.81;;;22.71;83.62
72061;BME280;59925;52.136;5.420;2023-09-12T08:42:43;101481.84;;;22.81;82.33
72061;BME280;59925;52.136;5.420;2023-09-12T08:45:14;101477.44;;;23.01;81.96
72061;BME280;59925;52.136;5.420;2023-09-12T08:47:43;101477.72;;;23.33;82.47
72061;BME280;59925;52.136;5.420;2023-09-12T08:50:14;101480.13;;;23.72;81.06
72061;BME280;59925;52.136;5.420;2023-09-12T08:52:44;101473.03;;;23.71;78.60
72061;BME280;59925;52.136;5.420;2023-09-12T08:55:31;101478.03;;;23.81;78.94
72061;BME280;59925;52.136;5.420;2023-09-12T08:58:00;101475.31;;;23.81;77.55
72061;BME280;59925;52.136;5.420;2023-09-12T09:00:29;101472.59;;;23.69;77.73
72061;BME280;59925;52.136;5.420;2023-09-12T09:02:56;101469.94;;;23.85;77.97
72061;BME280;59925;52.136;5.420;2023-09-12T09:05:24;101471.88;;;23.97;77.68
72061;BME280;59925;52.136;5.420;2023-09-12T09:07:51;101474.38;;;24.02;75.17
72061;BME280;59925;52.136;5.420;2023-09-12T09:10:23;101472.88;;;24.05;76.34
72061;BME280;59925;52.136;5.420;2023-09-12T09:13:08;101470.47;;;24.44;76.34
72061;BME280;59925;52.136;5.420;2023-09-12T09:15:37;101476.78;;;24.60;76.11
72061;BME280;59925;52.136;5.420;2023-09-12T09:18:09;101477.44;;;24.70;74.65
72061;BME280;59925;52.136;5.420;2023-09-12T09:20:37;101468.47;;;24.85;73.88
72061;BME280;59925;52.136;5.420;2023-09-12T09:23:06;101480.22;;;25.02;71.47
72061;BME280;59925;52.136;5.420;2023-09-12T09:25:39;101476.06;;;24.92;71.87
72061;BME280;59925;52.136;5.420;2023-09-12T09:28:20;101477.91;;;25.36;70.89
72061;BME280;59925;52.136;5.420;2023-09-12T09:30:51;101490.31;;;24.98;70.33
72061;BME280;59925;52.136;5.420;2023-09-12T09:33:19;101482.38;;;24.64;72.11
72061;BME280;59925;52.136;5.420;2023-09-12T09:35:47;101484.63;;;24.46;72.19
72061;BME280;59925;52.136;5.420;2023-09-12T09:38:14;101494.06;;;24.20;72.77
72061;BME280;59925;52.136;5.420;2023-09-12T09:40:43;101494.44;;;24.47;73.88
72061;BME280;59925;52.136;5.420;2023-09-12T09:43:10;101487.03;;;25.08;71.98
72061;BME280;59925;52.136;5.420;2023-09-12T09:45:45;101489.94;;;25.15;71.95
72061;BME280;59925;52.136;5.420;2023-09-12T09:48:23;101495.53;;;25.35;71.80
72061;BME280;59925;52.136;5.420;2023-09-12T09:50:50;101489.09;;;25.11;69.86
72061;BME280;59925;52.136;5.420;2023-09-12T09:53:29;101489.94;;;24.83;71.90
72061;BME280;59925;52.136;5.420;2023-09-12T09:56:12;101488.19;;;24.91;70.49
72061;BME280;59925;52.136;5.420;2023-09-12T09:58:57;101491.19;;;25.02;71.06
72061;BME280;59925;52.136;5.420;2023-09-12T10:01:28;101498.09;;;25.28;70.88
72061;BME280;59925;52.136;5.420;2023-09-12T10:04:00;101483.16;;;25.41;70.09
72061;BME280;59925;52.136;5.420;2023-09-12T10:06:28;101494.81;;;25.38;69.81
72061;BME280;59925;52.136;5.420;2023-09-12T10:08:55;101499.31;;;25.62;69.60
72061;BME280;59925;52.136;5.420;2023-09-12T10:11:26;101508.03;;;25.48;68.44
72061;BME280;59925;52.136;5.420;2023-09-12T10:13:55;101501.97;;;25.10;69.52
72061;BME280;59925;52.136;5.420;2023-09-12T10:16:23;101504.91;;;25.02;69.49
72061;BME280;59925;52.136;5.420;2023-09-12T10:19:15;101503.22;;;24.97;71.12
72061;BME280;59925;52.136;5.420;2023-09-12T10:22:16;101495.53;;;25.19;69.69
72061;BME280;59925;52.136;5.420;2023-09-12T10:24:45;101508.00;;;25.16;69.32
72061;BME280;59925;52.136;5.420;2023-09-12T10:27:13;101504.91;;;25.02;69.09
72061;BME280;59925;52.136;5.420;2023-09-12T10:29:40;101492.88;;;25.06;69.00
72061;BME280;59925;52.136;5.420;2023-09-12T10:32:08;101493.31;;;25.08;68.24
72061;BME280;59925;52.136;5.420;2023-09-12T10:34:36;101486.06;;;25.32;67.98
72061;BME280;59925;52.136;5.420;2023-09-12T10:37:04;101479.91;;;25.71;67.87
72061;BME280;59925;52.136;5.420;2023-09-12T10:39:32;101487.19;;;25.99;66.88
72061;BME280;59925;52.136;5.420;2023-09-12T10:42:04;101479.94;;;26.26;65.15
72061;BME280;59925;52.136;5.420;2023-09-12T10:44:30;101479.34;;;26.37;63.62
72061;BME280;59925;52.136;5.420;2023-09-12T10:46:57;101489.84;;;26.31;64.42
72061;BME280;59925;52.136;5.420;2023-09-12T10:49:24;101489.53;;;26.56;64.65
72061;BME280;59925;52.136;5.420;2023-09-12T10:51:53;101497.72;;;26.75;63.69
72061;BME280;59925;52.136;5.420;2023-09-12T10:54:25;101499.94;;;26.86;63.37
72061;BME280;59925;52.136;5.420;2023-09-12T10:57:05;101495.06;;;27.02;63.32
72061;BME280;59925;52.136;5.420;2023-09-12T10:59:32;101503.22;;;27.18;62.59
72061;BME280;59925;52.136;5.420;2023-09-12T11:02:27;101502.34;;;27.37;63.65
72061;BME280;59925;52.136;5.420;2023-09-12T11:04:56;101490.91;;;27.59;61.34
72061;BME280;59925;52.136;5.420;2023-09-12T11:12:42;101504.00;;;27.19;60.28
72061;BME280;59925;52.136;5.420;2023-09-12T11:15:09;101496.28;;;27.28;60.52
72061;BME280;59925;52.136;5.420;2023-09-12T11:17:41;101488.72;;;27.45;60.05
72061;BME280;59925;52.136;5.420;2023-09-12T11:20:08;101481.72;;;27.78;59.19
72061;BME280;59925;52.136;5.420;2023-09-12T11:22:41;101470.47;;;27.90;58.75
72061;BME280;59925;52.136;5.420;2023-09-12T11:25:28;101475.72;;;28.03;57.53
72061;BME280;59925;52.136;5.420;2023-09-12T11:30:22;101458.38;;;28.33;55.63
72061;BME280;59925;52.136;5.420;2023-09-12T11:32:50;101467.88;;;28.35;55.94
72061;BME280;59925;52.136;5.420;2023-09-12T11:35:25;101458.63;;;28.20;56.90
72061;BME280;59925;52.136;5.420;2023-09-12T11:37:59;101461.84;;;27.95;57.46
72061;BME280;59925;52.136;5.420;2023-09-12T11:40:42;101458.81;;;28.04;58.93
72061;BME280;59925;52.136;5.420;2023-09-12T11:43:24;101460.69;;;27.96;57.46
72061;BME280;59925;52.136;5.420;2023-09-12T11:45:51;101460.66;;;27.62;58.86
72061;BME280;59925;52.136;5.420;2023-09-12T11:48:19;101464.16;;;27.36;58.75
72061;BME280;59925;52.136;5.420;2023-09-12T11:50:54;101463.19;;;27.48;59.56
72061;BME280;59925;52.136;5.420;2023-09-12T11:53:23;101462.31;;;27.71;60.03
72061;BME280;59925;52.136;5.420;2023-09-12T11:55:57;101459.50;;;27.40;58.85
72061;BME280;59925;52.136;5.420;2023-09-12T11:58:25;101462.81;;;27.49;58.16
72061;BME280;59925;52.136;5.420;2023-09-12T12:00:53;101464.22;;;27.66;58.54
72061;BME280;59925;52.136;5.420;2023-09-12T12:03:22;101463.53;;;28.04;57.98
72061;BME280;59925;52.136;5.420;2023-09-12T12:05:49;101465.41;;;28.26;56.72
72061;BME280;59925;52.136;5.420;2023-09-12T12:08:17;101460.66;;;28.61;55.70
72061;BME280;59925;52.136;5.420;2023-09-12T12:10:51;101458.66;;;29.03;55.56
72061;BME280;59925;52.136;5.420;2023-09-12T12:13:19;101459.50;;;29.07;53.88
72061;BME280;59925;52.136;5.420;2023-09-12T12:15:46;101457.19;;;29.20;52.06
72061;BME280;59925;52.136;5.420;2023-09-12T12:18:13;101456.50;;;28.78;53.68
72061;BME280;59925;52.136;5.420;2023-09-12T12:20:40;101447.53;;;28.51;54.69
72061;BME280;59925;52.136;5.420;2023-09-12T12:23:06;101441.88;;;28.36;54.60
72061;BME280;59925;52.136;5.420;2023-09-12T12:25:34;101436.53;;;28.51;54.96
72061;BME280;59925;52.136;5.420;2023-09-12T12:28:02;101436.25;;;29.12;53.71
72061;BME280;59925;52.136;5.420;2023-09-12T12:30:33;101440.41;;;29.40;52.54
72061;BME280;59925;52.136;5.420;2023-09-12T12:33:08;101441.97;;;28.88;54.16
72061;BME280;59925;52.136;5.420;2023-09-12T12:36:01;101433.28;;;28.83;52.97
72061;BME280;59925;52.136;5.420;2023-09-12T12:38:38;101429.78;;;28.93;54.76
72061;BME280;59925;52.136;5.420;2023-09-12T12:41:26;101421.38;;;29.24;52.04
72061;BME280;59925;52.136;5.420;2023-09-12T12:44:05;101422.72;;;29.51;50.54
72061;BME280;59925;52.136;5.420;2023-09-12T12:46:32;101421.31;;;29.87;49.68
72061;BME280;59925;52.136;5.420;2023-09-12T12:48:59;101415.00;;;29.90;49.44
72061;BME280;59925;52.136;5.420;2023-09-12T12:51:26;101415.84;;;30.05;49.85
72061;BME280;59925;52.136;5.420;2023-09-12T12:53:54;101417.50;;;30.42;50.57
72061;BME280;59925;52.136;5.420;2023-09-12T12:56:28;101413.56;;;30.47;49.61
72061;BME280;59925;52.136;5.420;2023-09-12T12:58:58;101423.88;;;30.61;47.36
72061;BME280;59925;52.136;5.420;2023-09-12T13:01:25;101409.97;;;30.10;47.31
72061;BME280;59925;52.136;5.420;2023-09-12T13:03:51;101415.72;;;29.69;48.70
72061;BME280;59925;52.136;5.420;2023-09-12T13:06:19;101426.50;;;29.25;49.69
72061;BME280;59925;52.136;5.420;2023-09-12T13:08:47;101429.97;;;29.11;49.43
72061;BME280;59925;52.136;5.420;2023-09-12T13:11:16;101431.25;;;28.80;50.51
72061;BME280;59925;52.136;5.420;2023-09-12T13:13:45;101422.09;;;28.72;52.81